Grand Canyon Caverns, Arizona
Current Conditions -  °F | °C
As of 1:51 AM on Monday 24 Nov 2014 (Local Time) from KIGM Reporting Station
Clear Clear  
Wind Chill: 32°   Ceiling: Unl
Heat Index: 32°   Visibility: 10mi
Dew Point:   Wind: 0mph
Humidity: 34%   Direction: NA
Pressure: 30.25"   Gusts: NA
Location:  35.5603°N, 113.544°W
Report Text: KIGM 240851Z AUTO 00000KT 10SM CLR 00/M14 A3025 RMK AO2 SLP216 T00001144 50000
Loading
Personal Weather Stations






























Interactive Weather Map New forecast layout! Learn more

10-Day Weather Forecast

Advertisements
Track Severe Weather on mobile